Time;durP1;ratioP1;P1;durP2;ratioP2;P2;SDS_P1;SDS_P2;PMS_P1;PMS_P2;Temp;Humidity;BMP_temperature;BMP_pressure;BME280_temperature;BME280_humidity;BME280_pressure;Samples;Min_cycle;Max_cycle;Signal;HPM_P1;HPM_P2
2023/03/01 00:01:23;;;;;;;;;17.00;14.00;;;;;3.61;75.05;103245.31;5004769;28;11569;-63
2023/03/01 00:03:50;;;;;;;;;18.50;16.75;;;;;3.62;74.81;103239.03;5011522;28;11638;-65
2023/03/01 00:06:17;;;;;;;;;20.25;18.00;;;;;3.62;74.97;103244.34;5006044;28;11637;-66
2023/03/01 00:08:44;;;;;;;;;15.25;15.25;;;;;3.63;74.62;103243.38;5009762;28;11582;-65
2023/03/01 00:11:20;;;;;;;;;24.25;19.50;;;;;3.63;74.54;103241.59;5011831;28;11717;-62
2023/03/01 00:13:49;;;;;;;;;22.50;20.50;;;;;3.62;74.48;103239.88;5009908;28;11611;-66
2023/03/01 00:16:21;;;;;;;;;23.00;19.00;;;;;3.61;74.53;103239.97;5012068;28;11576;-65
2023/03/01 00:18:48;;;;;;;;;19.75;16.25;;;;;3.60;74.95;103233.75;5007199;28;11610;-66
2023/03/01 00:21:14;;;;;;;;;25.25;19.25;;;;;3.60;74.60;103232.91;5010016;28;11568;-65
2023/03/01 00:23:41;;;;;;;;;19.75;19.75;;;;;3.60;74.60;103232.91;5012183;28;11632;-65
2023/03/01 00:26:10;;;;;;;;;21.50;20.25;;;;;3.59;74.42;103229.38;5006107;28;11556;-63
2023/03/01 00:28:38;;;;;;;;;21.00;19.25;;;;;3.58;74.69;103218.84;5011510;28;11605;-65
2023/03/01 00:31:09;;;;;;;;;21.50;19.75;;;;;3.56;74.29;103220.72;5002245;28;11574;-62
2023/03/01 00:33:37;;;;;;;;;26.00;23.25;;;;;3.50;74.10;103227.28;5004382;28;11573;-65
2023/03/01 00:36:04;;;;;;;;;22.75;21.00;;;;;3.46;74.16;103212.44;5003812;28;11586;-64
2023/03/01 00:38:36;;;;;;;;;25.75;23.00;;;;;3.43;74.21;103217.91;5005452;28;11564;-65
2023/03/01 00:41:07;;;;;;;;;19.25;17.50;;;;;3.41;74.36;103218.03;5011491;28;12362;-65
2023/03/01 00:43:36;;;;;;;;;23.50;19.00;;;;;3.39;74.00;103213.72;5007682;28;12299;-64
2023/03/01 00:46:11;;;;;;;;;23.00;20.75;;;;;3.36;74.21;103220.09;5003709;28;11528;-65
2023/03/01 00:48:38;;;;;;;;;28.50;22.75;;;;;3.33;74.12;103222.09;5009579;28;11788;-64
2023/03/01 00:51:10;;;;;;;;;21.75;21.25;;;;;3.30;74.20;103217.78;5011075;28;11571;-66
2023/03/01 00:53:36;;;;;;;;;21.50;18.50;;;;;3.28;74.29;103210.81;5003601;28;11603;-61
2023/03/01 00:56:05;;;;;;;;;22.25;19.00;;;;;3.25;73.96;103211.88;5005427;28;11955;-65
2023/03/01 00:58:31;;;;;;;;;24.75;21.00;;;;;3.21;74.23;103205.00;5010508;28;11831;-63
2023/03/01 01:00:58;;;;;;;;;19.50;18.75;;;;;3.20;73.89;103204.16;5004408;28;11576;-65
2023/03/01 01:03:24;;;;;;;;;24.50;19.00;;;;;3.17;73.86;103208.78;5011442;28;11619;-64
2023/03/01 01:05:52;;;;;;;;;25.00;22.00;;;;;3.14;73.60;103199.16;5000291;28;11564;-65
2023/03/01 01:08:20;;;;;;;;;19.75;17.00;;;;;3.10;73.67;103210.94;5005501;28;12250;-66
2023/03/01 01:10:47;;;;;;;;;23.00;18.25;;;;;3.09;74.08;103209.22;5004475;28;11554;-65
2023/03/01 01:13:13;;;;;;;;;29.25;20.25;;;;;3.10;73.66;103212.75;5014078;28;11651;-66
2023/03/01 01:15:40;;;;;;;;;25.00;22.25;;;;;3.07;73.69;103208.44;5013735;28;11590;-66
2023/03/01 01:18:07;;;;;;;;;27.00;24.75;;;;;3.01;73.34;103198.16;5011067;28;11577;-65
2023/03/01 01:20:35;;;;;;;;;21.00;18.00;;;;;2.97;73.42;103197.47;5008889;28;11571;-67
2023/03/01 01:23:01;;;;;;;;;24.75;20.75;;;;;2.93;73.55;103200.41;5008860;28;11584;-65
2023/03/01 01:25:28;;;;;;;;;26.50;20.00;;;;;2.88;73.18;103199.81;5003726;28;11697;-66
2023/03/01 01:27:54;;;;;;;;;29.50;23.75;;;;;2.83;73.35;103184.06;5001679;28;11573;-66
2023/03/01 01:30:21;;;;;;;;;24.00;19.00;;;;;2.81;73.26;103179.81;5008295;28;11673;-65
2023/03/01 01:32:47;;;;;;;;;22.75;22.75;;;;;2.79;73.45;103171.03;5010265;28;11591;-65
2023/03/01 01:35:14;;;;;;;;;32.50;22.25;;;;;2.78;73.61;103178.16;5006507;28;11591;-62
2023/03/01 01:37:40;;;;;;;;;22.75;19.50;;;;;2.78;73.34;103170.19;5002971;28;12838;-64
2023/03/01 01:40:09;;;;;;;;;28.00;21.75;;;;;2.76;73.56;103171.22;5005831;28;11573;-65
2023/03/01 01:42:35;;;;;;;;;23.00;22.25;;;;;2.71;73.42;103163.50;5008203;28;11556;-66
2023/03/01 01:45:32;;;;;;;;;21.75;21.75;;;;;2.74;73.43;103173.97;5002433;28;11564;-63
2023/03/01 01:48:04;;;;;;;;;26.75;21.75;;;;;2.75;73.53;103172.16;4999149;28;12320;-63
2023/03/01 01:50:37;;;;;;;;;24.25;18.00;;;;;2.72;73.37;103162.56;5019554;28;11609;-65
2023/03/01 01:53:12;;;;;;;;;25.75;22.75;;;;;2.69;73.21;103160.06;4999519;28;11628;-67
2023/03/01 01:55:47;;;;;;;;;24.50;24.00;;;;;2.67;73.28;103159.28;5001967;28;11599;-64
2023/03/01 01:58:17;;;;;;;;;23.25;20.75;;;;;2.65;73.22;103159.38;4996380;28;11630;-65
2023/03/01 02:00:44;;;;;;;;;29.00;22.00;;;;;2.65;73.08;103159.38;5007440;28;11692;-67
2023/03/01 02:03:18;;;;;;;;;24.50;21.75;;;;;2.61;72.90;103160.50;5004404;28;11584;-66
2023/03/01 02:05:52;;;;;;;;;24.50;21.75;;;;;2.54;73.19;103153.78;5008965;28;11604;-63
2023/03/01 02:08:24;;;;;;;;;25.00;23.75;;;;;2.49;73.14;103158.50;5003994;28;11574;-66
2023/03/01 02:10:52;;;;;;;;;26.75;22.00;;;;;2.46;73.10;103164.00;5001051;28;11579;-62
2023/03/01 02:13:19;;;;;;;;;25.25;20.50;;;;;2.43;73.11;103156.19;5008476;28;11559;-65
2023/03/01 02:15:45;;;;;;;;;22.00;20.00;;;;;2.40;73.03;103156.38;5007572;28;11664;-64
2023/03/01 02:18:16;;;;;;;;;20.00;19.50;;;;;2.37;73.28;103159.19;5006675;28;11604;-63
2023/03/01 02:21:04;;;;;;;;;24.75;18.75;;;;;2.34;73.27;103149.56;5007488;28;11589;-64
2023/03/01 02:23:32;;;;;;;;;27.50;25.25;;;;;2.32;73.21;103140.00;5000344;28;11618;-63
2023/03/01 02:26:07;;;;;;;;;24.75;22.00;;;;;2.28;73.23;103149.94;5002079;28;12253;-64
2023/03/01 02:28:37;;;;;;;;;26.25;26.00;;;;;2.26;72.76;103142.97;5016116;28;11575;-64
2023/03/01 02:33:53;;;;;;;;;24.75;21.75;;;;;2.21;72.95;103149.38;5002104;28;11664;-64
2023/03/01 02:36:25;;;;;;;;;28.00;25.50;;;;;2.18;73.10;103140.72;5001383;28;11564;-64
2023/03/01 02:38:58;;;;;;;;;24.25;21.25;;;;;2.16;73.35;103138.16;4998980;28;11709;-65
2023/03/01 02:41:28;;;;;;;;;26.00;21.75;;;;;2.17;73.11;103141.66;4989371;28;11608;-65
2023/03/01 02:43:55;;;;;;;;;26.00;26.00;;;;;2.15;73.00;103141.75;4997155;28;11748;-63
2023/03/01 02:46:24;;;;;;;;;26.25;24.00;;;;;2.12;72.88;103130.44;5007314;28;11626;-61
2023/03/01 02:48:56;;;;;;;;;29.75;27.25;;;;;2.10;73.06;103124.34;5007263;28;11568;-63
2023/03/01 02:51:45;;;;;;;;;26.25;22.50;;;;;2.08;73.09;103127.09;4999740;28;11641;-67
2023/03/01 02:54:27;;;;;;;;;29.00;25.25;;;;;2.05;73.19;103127.25;5016230;28;11718;-65
2023/03/01 02:56:55;;;;;;;;;21.25;18.50;;;;;2.04;73.50;103124.69;5008039;28;12300;-64
2023/03/01 02:59:26;;;;;;;;;27.50;26.00;;;;;2.03;73.20;103123.81;5006979;28;11575;-64
2023/03/01 03:01:53;;;;;;;;;30.75;25.00;;;;;2.04;73.29;103130.84;5015168;28;11620;-64
2023/03/01 03:04:20;;;;;;;;;30.25;24.25;;;;;2.02;73.27;103126.53;5009270;28;11672;-63
2023/03/01 03:06:50;;;;;;;;;31.50;25.50;;;;;2.01;73.09;103122.19;4996953;28;12306;-62
2023/03/01 03:09:18;;;;;;;;;31.50;28.50;;;;;1.98;73.08;103118.78;5008820;28;11569;-62
2023/03/01 03:11:45;;;;;;;;;30.25;24.25;;;;;1.95;73.37;103110.97;5010724;28;11607;-65
2023/03/01 03:14:14;;;;;;;;;27.50;26.00;;;;;1.93;72.79;103107.50;5007022;28;12436;-65
2023/03/01 03:16:46;;;;;;;;;28.50;24.00;;;;;1.90;73.16;103106.81;5001431;28;12382;-62
2023/03/01 03:19:13;;;;;;;;;23.75;21.75;;;;;1.87;73.26;103107.00;5005266;28;11615;-64
2023/03/01 03:21:40;;;;;;;;;27.75;20.75;;;;;1.86;73.44;103107.91;4992761;28;11649;-66
2023/03/01 03:24:06;;;;;;;;;29.25;25.00;;;;;1.84;72.95;103096.53;5008164;28;11584;-65
2023/03/01 03:26:33;;;;;;;;;30.75;23.75;;;;;1.86;73.39;103105.25;5003068;28;11641;-63
2023/03/01 03:28:59;;;;;;;;;30.50;23.25;;;;;1.84;73.38;103092.06;5008271;28;12380;-65
2023/03/01 03:31:26;;;;;;;;;30.00;22.00;;;;;1.84;73.58;103085.91;5008863;28;11599;-66
2023/03/01 03:33:52;;;;;;;;;26.75;22.50;;;;;1.83;73.62;103078.91;5008119;28;11573;-63
2023/03/01 03:36:22;;;;;;;;;25.00;23.50;;;;;1.79;73.09;103088.81;5009312;28;11572;-66
2023/03/01 03:38:49;;;;;;;;;24.50;22.50;;;;;1.77;73.13;103081.88;5007154;28;11622;-66
2023/03/01 03:41:16;;;;;;;;;27.75;26.50;;;;;1.76;73.15;103081.00;5008110;28;11663;-63
2023/03/01 03:43:43;;;;;;;;;26.00;20.50;;;;;1.73;73.26;103070.53;5001444;28;12590;-62
2023/03/01 03:46:11;;;;;;;;;27.50;24.50;;;;;1.71;73.02;103072.44;5005510;28;12351;-61
2023/03/01 03:48:40;;;;;;;;;30.75;27.50;;;;;1.69;73.31;103072.50;5011662;28;11583;-64
2023/03/01 03:51:10;;;;;;;;;23.50;21.50;;;;;1.70;73.14;103076.00;5012345;28;11593;-64
2023/03/01 03:53:37;;;;;;;;;29.00;27.75;;;;;1.67;72.92;103071.75;5009456;28;11557;-65
2023/03/01 03:56:03;;;;;;;;;29.00;24.75;;;;;1.65;72.93;103080.72;5012729;28;11597;-64
2023/03/01 03:58:32;;;;;;;;;25.00;25.00;;;;;1.65;73.07;103081.56;5005766;28;11589;-64
2023/03/01 04:01:00;;;;;;;;;30.75;27.50;;;;;1.64;73.25;103084.31;5006034;28;11602;-64
2023/03/01 04:03:28;;;;;;;;;28.50;24.50;;;;;1.63;72.77;103091.44;5013087;28;12308;-65
2023/03/01 04:05:57;;;;;;;;;34.25;28.25;;;;;1.62;72.85;103084.41;5018737;28;11543;-64
2023/03/01 04:08:24;;;;;;;;;28.00;26.00;;;;;1.62;72.86;103087.06;5007162;28;11641;-63
2023/03/01 04:10:56;;;;;;;;;31.75;29.25;;;;;1.61;72.78;103084.47;5010043;28;11598;-65
2023/03/01 04:13:24;;;;;;;;;33.25;26.50;;;;;1.59;72.83;103078.41;5011062;28;11601;-64
2023/03/01 04:15:53;;;;;;;;;25.25;24.75;;;;;1.56;72.68;103075.91;5010486;28;11610;-66
2023/03/01 04:18:22;;;;;;;;;36.75;30.75;;;;;1.53;72.69;103076.06;5007317;28;11577;-65
2023/03/01 04:20:48;;;;;;;;;31.00;21.50;;;;;1.51;73.14;103075.28;5010067;28;11722;-62
2023/03/01 04:23:20;;;;;;;;;34.50;27.25;;;;;1.47;72.72;103064.81;5012620;28;11657;-66
2023/03/01 04:25:55;;;;;;;;;26.50;24.50;;;;;1.46;73.16;103073.72;5009583;28;11578;-64
2023/03/01 04:28:36;;;;;;;;;31.00;24.50;;;;;1.45;73.25;103074.66;5012352;28;11587;-64
2023/03/01 04:31:12;;;;;;;;;24.00;21.25;;;;;1.45;73.32;103074.66;5006383;28;11686;-65
2023/03/01 04:33:41;;;;;;;;;21.25;20.00;;;;;1.47;73.47;103079.91;5009405;28;11567;-65
2023/03/01 04:36:09;;;;;;;;;24.50;23.50;;;;;1.49;73.33;103070.91;5012633;28;11555;-64
2023/03/01 04:38:37;;;;;;;;;42.50;34.50;;;;;1.47;72.80;103061.31;5011738;28;11603;-64
2023/03/01 04:41:05;;;;;;;;;26.25;24.00;;;;;1.45;72.95;103068.47;5003741;28;11611;-63
2023/03/01 04:43:33;;;;;;;;;34.75;26.50;;;;;1.43;73.21;103060.63;5009892;28;11579;-65
2023/03/01 04:46:08;;;;;;;;;27.00;24.50;;;;;1.40;72.92;103060.78;5022079;28;11611;-64
2023/03/01 04:48:38;;;;;;;;;33.25;27.50;;;;;1.41;73.49;103061.63;4998627;28;12328;-65
2023/03/01 04:51:05;;;;;;;;;27.25;25.75;;;;;1.40;73.20;103062.56;4999605;28;11632;-64
2023/03/01 04:53:33;;;;;;;;;24.50;24.50;;;;;1.40;72.93;103066.06;5009854;28;11589;-65
2023/03/01 04:55:59;;;;;;;;;33.00;29.00;;;;;1.35;72.99;103062.81;5009003;28;11579;-65
2023/03/01 04:58:27;;;;;;;;;26.00;23.75;;;;;1.36;73.04;103067.16;5012172;28;11578;-65
2023/03/01 05:00:54;;;;;;;;;36.25;27.75;;;;;1.32;72.84;103060.31;5011376;28;11696;-65
2023/03/01 05:03:21;;;;;;;;;34.50;23.25;;;;;1.31;73.24;103063.91;5010527;28;11697;-63
2023/03/01 05:05:51;;;;;;;;;32.00;26.50;;;;;1.29;73.44;103056.94;5010066;28;12630;-63
2023/03/01 05:08:20;;;;;;;;;25.50;23.00;;;;;1.30;73.06;103056.00;5006340;28;11573;-67
2023/03/01 05:10:51;;;;;;;;;37.25;30.50;;;;;1.27;73.30;103057.03;5008215;28;11645;-64
2023/03/01 05:13:23;;;;;;;;;25.25;20.75;;;;;1.25;73.12;103053.59;5011649;28;11609;-64
2023/03/01 05:15:57;;;;;;;;;32.75;28.50;;;;;1.24;73.25;103047.44;5006014;28;11579;-64
2023/03/01 05:18:25;;;;;;;;;25.00;22.50;;;;;1.22;73.00;103046.69;5008861;28;11574;-64
2023/03/01 05:20:56;;;;;;;;;40.25;28.00;;;;;1.22;73.14;103040.50;5007785;28;11605;-64
2023/03/01 05:23:22;;;;;;;;;29.50;23.75;;;;;1.20;72.99;103037.91;5010549;28;11594;-62
2023/03/01 05:25:52;;;;;;;;;29.50;26.75;;;;;1.19;73.22;103033.56;5009384;28;11601;-65
2023/03/01 05:28:20;;;;;;;;;28.25;23.75;;;;;1.19;73.52;103035.34;5009702;28;11707;-65
2023/03/01 05:30:47;;;;;;;;;31.75;21.75;;;;;1.19;73.17;103025.59;5008588;28;11606;-63
2023/03/01 05:33:13;;;;;;;;;41.75;31.50;;;;;1.19;73.27;103022.94;4999633;28;11609;-68
2023/03/01 05:35:42;;;;;;;;;32.25;24.75;;;;;1.16;73.19;103014.28;5004772;28;11586;-68
2023/03/01 05:38:12;;;;;;;;;29.50;24.00;;;;;1.12;72.88;103008.28;5002317;28;11685;-69
2023/03/01 05:40:40;;;;;;;;;31.50;28.75;;;;;1.13;73.28;103009.13;5009348;28;11577;-67
2023/03/01 05:43:07;;;;;;;;;36.25;31.50;;;;;1.13;73.43;103006.47;5009400;28;11643;-66
2023/03/01 05:45:36;;;;;;;;;30.50;27.75;;;;;1.13;73.01;103014.44;5009502;28;11723;-67
2023/03/01 05:48:04;;;;;;;;;34.50;33.00;;;;;1.12;73.26;103002.97;5007888;28;11742;-69
2023/03/01 05:50:37;;;;;;;;;29.75;26.50;;;;;1.12;73.01;102999.47;5007014;28;11632;-68
2023/03/01 05:53:13;;;;;;;;;28.50;27.75;;;;;1.11;73.34;103011.88;5002135;28;11680;-69
2023/03/01 05:55:40;;;;;;;;;27.25;24.50;;;;;1.10;73.11;103006.66;5010314;28;11708;-69
2023/03/01 05:58:09;;;;;;;;;32.50;27.25;;;;;1.10;73.31;103001.38;5010455;28;11666;-69
2023/03/01 06:00:36;;;;;;;;;33.25;29.25;;;;;1.06;73.33;103000.66;5009514;28;11616;-68
2023/03/01 06:03:03;;;;;;;;;28.50;27.25;;;;;1.06;73.29;102998.00;5010259;28;11666;-67
2023/03/01 06:05:29;;;;;;;;;37.25;31.50;;;;;1.06;73.00;102991.84;5009407;28;12240;-68
2023/03/01 06:07:59;;;;;;;;;32.50;26.50;;;;;1.05;73.23;102995.41;5010143;28;11581;-67
2023/03/01 06:10:26;;;;;;;;;42.75;33.25;;;;;1.03;73.10;102997.31;5006135;28;11670;-68
2023/03/01 06:12:53;;;;;;;;;32.50;27.25;;;;;1.00;73.17;102998.31;5007530;28;11582;-69
2023/03/01 06:15:20;;;;;;;;;39.50;30.25;;;;;0.97;73.34;102994.03;5003077;28;11562;-69
2023/03/01 06:17:47;;;;;;;;;38.00;30.00;;;;;0.98;72.77;102995.75;5010434;28;11707;-68
2023/03/01 06:20:21;;;;;;;;;27.25;26.50;;;;;0.98;73.26;103001.06;5006168;28;12535;-68
2023/03/01 06:22:51;;;;;;;;;40.00;34.75;;;;;0.98;73.46;102989.59;5007470;28;11682;-68
2023/03/01 06:25:21;;;;;;;;;28.50;28.50;;;;;0.98;72.90;102986.94;5009566;28;11584;-69
2023/03/01 06:27:48;;;;;;;;;36.75;30.25;;;;;0.99;72.83;102986.00;5007021;28;11565;-67
2023/03/01 06:30:17;;;;;;;;;35.25;27.75;;;;;1.02;73.26;102985.00;5007369;28;12312;-69
2023/03/01 06:32:44;;;;;;;;;33.75;30.25;;;;;1.02;73.09;102990.28;5001643;28;11616;-68
2023/03/01 06:35:12;;;;;;;;;33.25;31.00;;;;;1.03;73.09;102992.00;5009941;28;11580;-70
2023/03/01 06:37:39;;;;;;;;;32.25;28.25;;;;;1.03;72.95;102997.31;5002140;28;11593;-69
2023/03/01 06:40:07;;;;;;;;;27.25;25.50;;;;;1.03;73.01;102998.16;5003059;28;11593;-69
2023/03/01 06:42:35;;;;;;;;;35.75;31.75;;;;;1.04;73.12;102999.00;5004298;28;11694;-69
2023/03/01 06:45:04;;;;;;;;;33.50;28.00;;;;;1.05;73.28;103001.56;5005207;28;11718;-70
2023/03/01 06:47:30;;;;;;;;;30.75;26.75;;;;;1.06;73.24;102995.34;5009760;28;11594;-69
2023/03/01 06:49:57;;;;;;;;;22.75;21.50;;;;;1.07;73.28;102991.75;5009267;28;12298;-68
2023/03/01 06:52:23;;;;;;;;;36.50;30.50;;;;;1.10;73.40;102994.25;5009128;28;11693;-67
2023/03/01 06:54:50;;;;;;;;;33.75;29.00;;;;;1.12;73.30;102997.66;5009337;28;11594;-67
2023/03/01 06:57:16;;;;;;;;;38.75;28.00;;;;;1.20;72.94;102995.47;5010174;28;11562;-67
2023/03/01 06:59:43;;;;;;;;;40.00;36.00;;;;;1.22;72.75;103000.72;4997069;28;11574;-68
2023/03/01 07:02:13;;;;;;;;;43.25;34.25;;;;;1.20;73.01;102995.47;5002627;28;11618;-67
2023/03/01 07:04:40;;;;;;;;;32.75;30.75;;;;;1.20;73.14;103002.59;5005267;28;11689;-65
2023/03/01 07:07:07;;;;;;;;;39.75;30.75;;;;;1.22;73.20;103006.03;5003636;28;11578;-70
2023/03/01 07:09:34;;;;;;;;;32.75;29.25;;;;;1.34;73.40;103007.19;5008629;28;11647;-69
2023/03/01 07:12:01;;;;;;;;;25.75;22.00;;;;;1.51;72.66;103006.28;5006695;28;11748;-68
2023/03/01 07:14:28;;;;;;;;;47.00;36.00;;;;;1.58;72.26;103010.28;5009604;28;11701;-67
2023/03/01 07:16:55;;;;;;;;;43.50;42.50;;;;;1.61;72.33;103005.69;5007854;28;11712;-69
2023/03/01 07:19:22;;;;;;;;;39.00;36.75;;;;;1.67;72.58;103013.34;5009863;28;11605;-69
2023/03/01 07:21:48;;;;;;;;;37.50;33.00;;;;;1.71;72.43;103022.84;5010620;28;11717;-69
2023/03/01 07:24:15;;;;;;;;;29.50;27.50;;;;;1.73;72.30;103022.75;5012992;28;11675;-69
2023/03/01 07:26:41;;;;;;;;;33.50;28.00;;;;;1.80;72.43;103025.94;5013461;28;11605;-68
2023/03/01 07:29:10;;;;;;;;;34.75;31.50;;;;;1.86;72.47;103023.78;5013435;28;12093;-69
2023/03/01 07:31:36;;;;;;;;;30.75;28.50;;;;;1.91;72.40;103027.06;5015999;28;11596;-69
2023/03/01 07:34:03;;;;;;;;;37.25;29.00;;;;;1.95;72.53;103028.63;5012773;28;11609;-69
2023/03/01 07:36:29;;;;;;;;;35.00;30.25;;;;;1.98;72.37;103023.16;5012976;28;11589;-69
2023/03/01 07:38:57;;;;;;;;;31.25;29.50;;;;;2.06;72.71;103016.53;5013239;28;11716;-68
2023/03/01 07:41:24;;;;;;;;;30.00;27.50;;;;;2.10;72.75;103023.38;5016350;28;11574;-68
2023/03/01 07:43:51;;;;;;;;;21.75;21.00;;;;;2.18;73.36;103029.13;5013729;28;11583;-68
2023/03/01 07:46:18;;;;;;;;;23.00;23.00;;;;;2.24;73.82;103026.13;5005565;28;11584;-68
2023/03/01 07:48:45;;;;;;;;;24.75;22.25;;;;;2.33;74.23;103024.75;4994430;28;11587;-68
2023/03/01 07:51:11;;;;;;;;;24.00;22.00;;;;;2.38;73.60;103020.03;5014347;28;11816;-69
2023/03/01 07:53:39;;;;;;;;;26.75;21.75;;;;;2.48;73.94;103019.44;5014662;28;11586;-69
2023/03/01 07:56:05;;;;;;;;;28.25;21.75;;;;;2.58;74.04;103016.22;5023350;28;11598;-69
2023/03/01 07:58:34;;;;;;;;;21.00;19.75;;;;;2.64;74.25;103021.22;5034378;28;11686;-69
2023/03/01 08:01:05;;;;;;;;;23.25;19.75;;;;;2.73;74.37;103023.31;5013226;28;11559;-68
2023/03/01 08:03:32;;;;;;;;;24.50;21.50;;;;;2.83;74.24;103023.63;5013614;28;11644;-69
2023/03/01 08:06:00;;;;;;;;;25.00;22.50;;;;;2.88;74.06;103033.06;5020991;28;11560;-70
2023/03/01 08:08:26;;;;;;;;;20.50;18.00;;;;;2.93;74.31;103028.34;5027265;28;11689;-68
2023/03/01 08:10:56;;;;;;;;;27.75;19.50;;;;;3.03;74.62;103030.44;5014226;28;12300;-69
2023/03/01 08:13:23;;;;;;;;;23.00;20.50;;;;;3.21;74.66;103029.34;5012773;28;11556;-70
2023/03/01 08:15:49;;;;;;;;;27.75;23.00;;;;;3.33;74.22;103020.63;5012039;28;11682;-66
2023/03/01 08:18:17;;;;;;;;;30.75;23.25;;;;;3.45;74.30;103024.34;5016453;28;11677;-68
2023/03/01 08:20:43;;;;;;;;;31.75;28.50;;;;;3.51;73.46;103026.63;5023072;28;11583;-65
2023/03/01 08:23:10;;;;;;;;;20.75;20.25;;;;;3.61;73.53;103022.44;5008821;28;11593;-68
2023/03/01 08:25:37;;;;;;;;;35.50;28.50;;;;;3.64;72.86;103022.22;5007708;28;11619;-69
2023/03/01 08:28:04;;;;;;;;;23.25;22.50;;;;;3.62;73.46;103016.16;4994805;28;11590;-68
2023/03/01 08:30:31;;;;;;;;;30.75;24.75;;;;;3.62;73.31;103020.63;4992593;28;11570;-69
2023/03/01 08:32:58;;;;;;;;;36.75;32.25;;;;;3.69;73.64;103013.97;5007856;28;11670;-69
2023/03/01 08:35:24;;;;;;;;;33.00;30.50;;;;;3.78;72.86;103018.72;4997127;28;11589;-69
2023/03/01 08:37:51;;;;;;;;;30.25;29.75;;;;;3.82;73.21;103017.56;5012160;28;11573;-69
2023/03/01 08:40:17;;;;;;;;;29.75;26.00;;;;;3.94;73.39;103023.94;5011877;28;11609;-70
2023/03/01 08:42:44;;;;;;;;;34.50;28.50;;;;;4.05;72.88;103017.91;5008967;28;11743;-70
2023/03/01 08:45:11;;;;;;;;;28.00;25.00;;;;;4.15;72.56;103011.03;4994483;28;11626;-70
2023/03/01 08:47:38;;;;;;;;;29.25;24.75;;;;;4.24;72.13;103013.09;5029085;28;12306;-70
2023/03/01 08:50:05;;;;;;;;;34.50;29.75;;;;;4.29;71.62;103007.47;4992596;28;11602;-69
2023/03/01 08:52:32;;;;;;;;;36.50;30.50;;;;;4.24;71.96;103010.44;4992735;28;11754;-69
2023/03/01 08:55:01;;;;;;;;;33.75;26.75;;;;;4.23;71.97;103014.06;5011690;28;11708;-68
2023/03/01 08:57:27;;;;;;;;;32.25;29.25;;;;;4.22;71.96;103012.38;5012727;28;11673;-69
2023/03/01 08:59:55;;;;;;;;;25.75;23.50;;;;;4.22;72.01;103012.38;4994910;28;11595;-70
2023/03/01 09:02:22;;;;;;;;;23.75;21.75;;;;;4.17;72.06;103007.34;5012029;28;11564;-69
2023/03/01 09:04:49;;;;;;;;;24.75;21.75;;;;;4.12;71.95;103008.56;5011379;28;11563;-68
2023/03/01 09:07:15;;;;;;;;;32.50;26.50;;;;;4.01;72.27;103003.94;5028404;28;11566;-69
2023/03/01 09:09:41;;;;;;;;;27.25;23.50;;;;;3.91;72.48;103002.81;5028908;28;11566;-70
2023/03/01 09:12:08;;;;;;;;;24.75;21.75;;;;;3.74;72.75;103001.22;5011459;28;12388;-69
2023/03/01 09:14:37;;;;;;;;;23.00;22.25;;;;;3.61;73.08;102989.63;5011307;28;12376;-70
2023/03/01 09:17:03;;;;;;;;;29.75;24.75;;;;;3.54;73.54;102999.81;5026274;28;11580;-69
2023/03/01 09:19:30;;;;;;;;;38.50;29.00;;;;;3.41;73.85;102997.03;5030555;28;12289;-69
2023/03/01 09:21:58;;;;;;;;;32.00;27.00;;;;;3.50;74.42;102994.75;4992133;28;12476;-69
2023/03/01 09:24:25;;;;;;;;;30.75;23.75;;;;;3.57;74.38;102993.44;5006503;28;11588;-68
2023/03/01 09:26:55;;;;;;;;;33.75;24.50;;;;;3.64;74.88;102994.75;5023084;28;11626;-66
2023/03/01 09:29:22;;;;;;;;;33.50;28.25;;;;;3.66;74.09;102987.53;5021096;28;12280;-68
2023/03/01 09:31:48;;;;;;;;;35.50;30.75;;;;;3.66;74.85;102992.84;4992641;28;11723;-68
2023/03/01 09:34:19;;;;;;;;;37.75;29.25;;;;;3.63;74.08;102993.03;4991463;28;11571;-68
2023/03/01 09:36:45;;;;;;;;;38.75;33.00;;;;;3.58;74.19;102989.81;4991762;28;11718;-68
2023/03/01 09:39:11;;;;;;;;;35.50;33.00;;;;;3.59;74.49;102995.03;5008314;28;11656;-66
2023/03/01 09:41:38;;;;;;;;;31.00;27.75;;;;;3.63;75.31;102985.91;5003489;28;11575;-69
2023/03/01 09:44:13;;;;;;;;;37.00;30.50;;;;;3.80;76.16;102984.84;4991558;28;12422;-70
2023/03/01 09:46:45;;;;;;;;;33.25;29.75;;;;;3.94;74.92;102992.81;4992009;28;11646;-67
2023/03/01 09:49:19;;;;;;;;;34.00;29.25;;;;;4.06;74.56;102985.00;5030421;28;11550;-68
2023/03/01 09:51:59;;;;;;;;;32.00;27.50;;;;;4.13;73.34;102983.63;5011743;28;11760;-69
2023/03/01 09:54:26;;;;;;;;;36.75;32.75;;;;;4.13;73.78;102986.28;5010363;28;11720;-70
2023/03/01 09:57:04;;;;;;;;;33.00;31.50;;;;;4.11;73.55;102978.41;4994606;28;12327;-69
2023/03/01 09:59:49;;;;;;;;;30.00;29.25;;;;;4.14;73.40;102990.69;4991113;28;11579;-69
2023/03/01 10:02:34;;;;;;;;;35.25;33.00;;;;;4.04;72.74;102982.41;4995781;28;11668;-70
2023/03/01 10:05:25;;;;;;;;;39.75;30.75;;;;;3.85;73.39;102988.09;5010318;28;12324;-69
2023/03/01 10:08:21;;;;;;;;;35.00;28.00;;;;;3.81;74.20;102991.00;5018207;28;11698;-70
2023/03/01 10:10:48;;;;;;;;;35.75;32.75;;;;;3.72;73.91;102982.66;4991195;28;11608;-70
2023/03/01 10:13:17;;;;;;;;;36.75;30.50;;;;;3.63;74.85;102983.25;4990964;28;11612;-70
2023/03/01 10:15:55;;;;;;;;;40.00;34.75;;;;;3.59;74.90;102983.53;4990697;28;11664;-70
2023/03/01 10:18:27;;;;;;;;;38.50;30.50;;;;;3.58;75.22;102982.69;5026660;28;11599;-70
2023/03/01 10:21:02;;;;;;;;;33.00;28.50;;;;;3.66;76.21;102980.41;5030018;28;11575;-70
2023/03/01 10:23:32;;;;;;;;;32.25;28.50;;;;;3.77;75.55;102981.50;5014845;28;11574;-70
2023/03/01 10:26:36;;;;;;;;;41.50;32.75;;;;;3.94;75.67;102971.50;5010344;28;11557;-68
2023/03/01 10:29:08;;;;;;;;;47.75;41.00;;;;;4.09;74.38;102969.66;4991125;28;11646;-70
2023/03/01 10:31:46;;;;;;;;;39.25;36.25;;;;;4.18;74.88;102968.22;4990570;28;11695;-70
2023/03/01 10:34:22;;;;;;;;;39.25;33.50;;;;;4.33;74.73;102963.66;4990485;28;11606;-69
2023/03/01 10:36:56;;;;;;;;;46.00;32.00;;;;;4.49;74.03;102955.50;4999807;28;11582;-67
2023/03/01 10:39:25;;;;;;;;;36.50;28.00;;;;;4.55;73.52;102949.78;5024134;28;11602;-69
2023/03/01 10:42:01;;;;;;;;;32.75;27.50;;;;;4.71;73.19;102940.63;5011763;28;12478;-68
2023/03/01 10:44:37;;;;;;;;;37.00;27.75;;;;;4.84;72.09;102939.78;4990765;28;11597;-69
2023/03/01 10:47:04;;;;;;;;;34.25;31.75;;;;;4.90;71.17;102932.22;4990505;28;11603;-68
2023/03/01 10:49:31;;;;;;;;;34.25;30.50;;;;;4.89;70.81;102930.50;5020035;28;11564;-69
2023/03/01 10:52:17;;;;;;;;;34.75;32.50;;;;;4.97;70.26;102927.28;5029958;28;11604;-69
2023/03/01 10:54:53;;;;;;;;;44.00;33.50;;;;;5.04;69.89;102925.91;5010441;28;11686;-69
2023/03/01 10:57:38;;;;;;;;;43.50;34.00;;;;;5.12;69.95;102933.38;5012076;28;11679;-66
2023/03/01 11:00:22;;;;;;;;;37.25;29.75;;;;;5.17;69.27;102925.91;5014161;28;11578;-66
2023/03/01 11:02:58;;;;;;;;;49.00;40.25;;;;;5.14;67.79;102923.44;5016891;28;11570;-65
2023/03/01 11:05:28;;;;;;;;;42.25;40.00;;;;;5.08;67.81;102916.72;5005407;28;11671;-65
2023/03/01 11:07:56;;;;;;;;;40.25;37.75;;;;;5.08;67.80;102916.72;4994877;28;11587;-65
2023/03/01 11:10:28;;;;;;;;;50.00;38.50;;;;;5.12;67.11;102917.38;4994869;28;11633;-63
2023/03/01 11:13:18;;;;;;;;;47.50;37.75;;;;;5.10;66.92;102914.78;5006804;28;11598;-64
2023/03/01 11:16:06;;;;;;;;;37.50;32.25;;;;;5.14;67.03;102915.44;5011484;28;11719;-65
2023/03/01 11:18:33;;;;;;;;;44.25;40.50;;;;;5.18;66.51;102911.59;4997924;28;11674;-65
2023/03/01 11:21:15;;;;;;;;;36.75;32.75;;;;;5.17;65.90;102902.72;4996277;28;11645;-66
2023/03/01 11:23:45;;;;;;;;;45.00;37.00;;;;;5.11;65.33;102892.50;5013984;28;11597;-65
2023/03/01 11:26:15;;;;;;;;;43.50;35.25;;;;;5.07;65.17;102898.16;5014162;28;11579;-66
2023/03/01 11:28:44;;;;;;;;;43.50;35.75;;;;;5.04;65.16;102898.38;5013308;28;11621;-65
2023/03/01 11:31:12;;;;;;;;;40.50;35.75;;;;;4.98;65.04;102896.97;5014014;28;11595;-67